Grawn, Michigan
Current Conditions -  °F | °C
As of 10:37 PM on Monday 20 Oct 2014 (Local Time) from KTVC Reporting Station
Overcast Overcast  
Wind Chill: 41°   Ceiling: 1400
Heat Index: 47°   Visibility: 10mi
Dew Point: 42°   Wind: 15mph
Humidity: 83%   Direction: 330°NNW
Pressure: 29.94"   Gusts: 22mph
Location:  44.66°N, 85.69°W
Report Text: KTVC 210237Z 33013G19KT 10SM OVC014 08/06 A2994 RMK AO2 RAB24E34 P0000 T00830056
Loading
Personal Weather Stations






























Interactive Weather Map
Tropical Storm Tracking
New forecast layout! Learn more

10-Day Weather Forecast

Advertisements
Track Severe Weather on mobile